Latest Weather Observations for Hillarys Point Boat Harbour

IDW60801

Issued at 6:32 pm WST Saturday 28 March 2015 (issued every 30 minutes, with the page automatically refreshed every 10 minutes)

About weather observations | Map of weather stations | Latest weather observations for WA | Other Formats
Station Details ID: 009265 Name: HILLARYS BOAT HARBOUR NTC AWS Lat: -31.83 Lon: 115.74 Height: 0.0 m
Data from the previous 72 hours. | See also: Recent months for locations in Western Australia
Date/Time
WST
Temp
°C
App
Temp
°C
Dew
Point
Rel
Hum
%
Delta-T
°C
Wind Press
QNH
hPa
Press
MSL
hPa
Rain
since 9 am
mm
Dir
 
Spd
km/h
Gust
km/h
Spd
kts
Gust
kts
28/06:30pm 20.9 - - - - SSW 11 24 6 13 1018.8 1018.8 -
28/06:00pm 21.0 - - - - SSW 13 28 7 15 1018.6 1018.6 -
28/05:30pm 21.2 - - - - SSW 15 30 8 16 1018.5 1018.5 -
28/05:00pm 21.2 - - - - SSW 17 28 9 15 1018.4 1018.4 -
28/04:30pm 21.3 - - - - SSW 17 30 9 16 1018.3 1018.3 -
28/04:00pm 21.5 - - - - SSW 15 26 8 14 1018.4 1018.4 -
28/03:30pm 21.6 - - - - SSW 17 28 9 15 1018.4 1018.4 -
28/03:00pm 21.6 - - - - SSW 15 26 8 14 1018.6 1018.6 -
28/02:30pm 21.7 - - - - SSW 15 24 8 13 1018.8 1018.8 -
28/02:00pm 21.6 - - - - SSW 15 26 8 14 1018.9 1018.9 -
28/01:30pm 21.4 - - - - SSW 13 24 7 13 1019.3 1019.3 -
28/01:00pm 21.4 - - - - SSW 13 24 7 13 1019.5 1019.5 -
28/12:30pm 21.5 - - - - SW 11 19 6 10 1019.7 1019.7 -
28/12:00pm 20.9 - - - - SW 17 22 9 12 1020.1 1020.1 -
28/11:30am 21.1 - - - - SW 13 19 7 10 1020.4 1020.4 -
28/11:00am 20.9 - - - - SW 9 15 5 8 1020.6 1020.6 -
28/10:30am 20.4 - - - - SSW 9 17 5 9 1020.9 1020.9 -
28/10:00am 20.2 - - - - SSW 6 13 3 7 1021.0 1021.0 -
28/09:30am 20.2 - - - - SSW 7 15 4 8 1021.0 1021.0 -
28/09:00am 20.1 - - - - S 6 13 3 7 1020.8 1020.8 -
28/08:30am 19.5 - - - - SSE 6 11 3 6 1020.8 1020.8 -
28/08:00am 18.6 - - - - SE 4 9 2 5 1020.5 1020.5 -
28/07:30am 17.6 - - - - SSE 6 11 3 6 1020.4 1020.4 -
28/07:00am 17.0 - - - - SE 4 9 2 5 1020.2 1020.2 -
28/06:30am 16.1 - - - - E 2 6 1 3 1019.8 1019.8 -
28/06:00am 16.6 - - - - S 2 4 1 2 1019.5 1019.5 -
28/05:30am 16.2 - - - - CALM 0 2 0 1 1019.2 1019.2 -
28/05:00am 16.4 - - - - ENE 4 6 2 3 1018.9 1018.9 -
28/04:30am 16.4 - - - - ENE 4 6 2 3 1018.6 1018.6 -
28/04:00am 16.7 - - - - ENE 4 6 2 3 1018.5 1018.5 -
28/03:30am 16.7 - - - - ENE 4 6 2 3 1018.5 1018.5 -
28/03:00am 17.6 - - - - CALM 0 2 0 1 1018.3 1018.3 -
28/02:30am 17.7 - - - - CALM 0 2 0 1 1018.3 1018.3 -
28/02:00am 18.2 - - - - CALM 0 2 0 1 1018.5 1018.5 -
28/01:30am 18.3 - - - - CALM 0 2 0 1 1018.6 1018.6 -
28/01:00am 18.1 - - - - NE 4 6 2 3 1018.7 1018.7 -
28/12:30am 19.1 - - - - SSE 2 4 1 2 1018.9 1018.9 -
28/12:00am 19.3 - - - - E 2 4 1 2 1018.8 1018.8 -
 
Date/Time
WST
Temp
°C
App
Temp
°C
Dew
Point
Rel
Hum
%
Delta-T
°C
Wind Press
QNH
hPa
Press
MSL
hPa
Rain
since 9 am
mm
Dir
 
Spd
km/h
Gust
km/h
Spd
kts
Gust
kts
27/11:30pm 20.1 - - - - SSE 4 9 2 5 1018.8 1018.8 -
27/11:00pm 20.5 - - - - S 6 11 3 6 1019.0 1019.0 -
27/10:30pm 20.8 - - - - SSE 6 11 3 6 1019.3 1019.3 -
27/10:00pm 21.1 - - - - SSE 6 9 3 5 1019.5 1019.5 -
27/09:30pm 21.3 - - - - SSE 6 11 3 6 1019.5 1019.5 -
27/09:00pm 21.6 - - - - S 7 17 4 9 1019.6 1019.6 -
27/08:30pm 21.8 - - - - S 6 17 3 9 1019.1 1019.1 -
27/08:00pm 21.9 - - - - S 6 19 3 10 1018.8 1018.8 -
27/07:30pm 21.9 - - - - SSW 7 19 4 10 1018.4 1018.4 -
27/07:00pm 21.9 - - - - SSW 7 20 4 11 1017.9 1017.9 -
27/06:30pm 22.0 - - - - SSW 7 19 4 10 1017.6 1017.6 -
27/06:00pm 22.1 - - - - SSW 9 17 5 9 1017.4 1017.4 -
27/05:30pm 22.3 - - - - SSW 11 24 6 13 1017.4 1017.4 -
27/05:00pm 22.5 - - - - SSW 13 22 7 12 1017.3 1017.3 -
27/04:30pm 22.5 - - - - SSW 13 26 7 14 1017.1 1017.1 -
27/04:00pm 22.6 - - - - SSW 13 26 7 14 1017.0 1017.0 -
27/03:30pm 22.6 - - - - SSW 13 26 7 14 1017.1 1017.1 -
27/03:00pm 22.6 - - - - SSW 13 22 7 12 1017.3 1017.3 -
27/02:30pm 22.6 - - - - SSW 13 24 7 13 1017.5 1017.5 -
27/02:00pm 22.5 - - - - SSW 11 19 6 10 1017.7 1017.7 -
27/01:30pm 22.5 - - - - SW 13 20 7 11 1018.0 1018.0 -
27/01:00pm 21.9 - - - - SW 15 22 8 12 1018.3 1018.3 -
27/12:30pm 22.1 - - - - SW 15 20 8 11 1018.6 1018.6 -
27/12:00pm 22.3 - - - - SW 9 17 5 9 1019.1 1019.1 -
27/11:30am 21.6 - - - - SW 13 17 7 9 1019.4 1019.4 -
27/11:00am 21.4 - - - - WSW 9 13 5 7 1019.5 1019.5 -
27/10:30am 21.6 - - - - SW 7 11 4 6 1019.7 1019.7 -
27/10:00am 23.1 - - - - NE 4 9 2 5 1019.9 1019.9 -
27/09:30am 21.9 - - - - E 6 11 3 6 1020.0 1020.0 -
27/09:00am 20.9 - - - - ENE 11 17 6 9 1019.8 1019.8 -
27/08:30am 19.9 - - - - ENE 9 17 5 9 1019.8 1019.8 -
27/08:00am 19.2 - - - - ENE 13 19 7 10 1019.7 1019.7 -
27/07:30am 18.5 - - - - ENE 9 15 5 8 1019.7 1019.7 -
27/07:00am 17.5 - - - - ENE 9 17 5 9 1019.7 1019.7 -
27/06:30am 17.5 - - - - ENE 7 13 4 7 1019.6 1019.6 -
27/06:00am 17.4 - - - - ENE 9 15 5 8 1019.5 1019.5 -
27/05:30am 17.4 - - - - ENE 9 15 5 8 1019.2 1019.2 -
27/05:00am 17.4 - - - - ENE 6 11 3 6 1019.1 1019.1 -
27/04:30am 17.4 - - - - ENE 9 15 5 8 1018.8 1018.8 -
27/04:00am 17.9 - - - - ENE 9 17 5 9 1018.8 1018.8 -
27/03:30am 18.0 - - - - ENE 6 11 3 6 1019.3 1019.3 -
27/03:00am 18.0 - - - - ENE 4 11 2 6 1019.5 1019.5 -
27/02:30am 18.3 - - - - E 7 15 4 8 1019.4 1019.4 -
27/02:00am 18.8 - - - - E 4 9 2 5 1019.9 1019.9 -
27/01:30am 19.4 - - - - E 7 15 4 8 1020.1 1020.1 -
27/01:00am 19.6 - - - - E 4 11 2 6 1020.3 1020.3 -
27/12:30am 19.8 - - - - E 2 11 1 6 1020.8 1020.8 -
27/12:00am 19.3 - - - - ENE 6 15 3 8 1021.0 1021.0 -
 
Date/Time
WST
Temp
°C
App
Temp
°C
Dew
Point
Rel
Hum
%
Delta-T
°C
Wind Press
QNH
hPa
Press
MSL
hPa
Rain
since 9 am
mm
Dir
 
Spd
km/h
Gust
km/h
Spd
kts
Gust
kts
26/11:30pm 20.1 - - - - E 7 13 4 7 1021.0 1021.0 -
26/11:00pm 20.4 - - - - E 6 13 3 7 1020.9 1020.9 -
26/10:30pm 20.4 - - - - E 6 15 3 8 1021.3 1021.3 -
26/10:00pm 20.4 - - - - ESE 2 7 1 4 1021.2 1021.2 -
26/09:30pm 20.4 - - - - E 4 9 2 5 1021.3 1021.3 -
26/09:00pm 21.1 - - - - E 4 9 2 5 1021.7 1021.7 -
26/08:30pm 20.8 - - - - ENE 2 2 1 1 1021.8 1021.8 -
26/08:00pm 21.1 - - - - N 4 9 2 5 1021.7 1021.7 -
26/07:30pm 22.1 - - - - NW 6 9 3 5 1021.2 1021.2 -
26/07:00pm 23.0 - - - - NNE 2 6 1 3 1020.7 1020.7 -
26/06:30pm 24.1 - - - - NNE 9 17 5 9 1020.0 1020.0 -
26/06:00pm 25.2 - - - - NE 7 13 4 7 1019.6 1019.6 -
26/05:30pm 25.5 - - - - ENE 11 17 6 9 1019.1 1019.1 -
26/05:00pm 25.6 - - - - NE 7 15 4 8 1019.1 1019.1 -
26/04:30pm 26.4 - - - - NNE 11 24 6 13 1019.4 1019.4 -
26/04:00pm 27.0 - - - - NNE 17 32 9 17 1018.9 1018.9 -
26/03:30pm 28.5 - - - - NNE 11 19 6 10 1018.7 1018.7 -
26/03:00pm 28.6 - - - - ENE 13 24 7 13 1018.6 1018.6 -
26/02:30pm 29.0 - - - - ENE 13 22 7 12 1018.7 1018.7 -
26/02:00pm 28.6 - - - - ENE 15 26 8 14 1019.1 1019.1 -
26/01:30pm 28.9 - - - - ENE 15 26 8 14 1019.4 1019.4 -
26/01:00pm 28.4 - - - - ENE 20 33 11 18 1020.0 1020.0 -
26/12:30pm 28.4 - - - - ENE 17 30 9 16 1020.3 1020.3 -
26/12:00pm 27.5 - - - - ENE 19 37 10 20 1020.9 1020.9 -
26/11:30am 26.3 - - - - ENE 22 35 12 19 1021.4 1021.4 -
26/11:00am 25.8 - - - - ENE 20 35 11 19 1021.8 1021.8 -
26/10:30am 24.6 - - - - ENE 26 43 14 23 1022.1 1022.1 -
26/10:00am 23.9 - - - - ENE 24 41 13 22 1022.3 1022.3 -
26/09:30am 22.7 - - - - ENE 24 37 13 20 1022.4 1022.4 -
26/09:00am 20.8 - - - - ENE 22 37 12 20 1022.5 1022.5 -
26/08:30am 19.8 - - - - ENE 26 44 14 24 1022.7 1022.7 -
26/08:00am 19.1 - - - - ENE 22 39 12 21 1022.5 1022.5 -
26/07:30am 17.8 - - - - ENE 20 35 11 19 1022.4 1022.4 -
26/07:00am 17.3 - - - - ENE 17 30 9 16 1022.3 1022.3 -
26/06:30am 17.2 - - - - ENE 19 33 10 18 1022.2 1022.2 -
26/06:00am 17.4 - - - - ENE 20 35 11 19 1021.9 1021.9 -
26/05:30am 17.6 - - - - ENE 19 33 10 18 1021.9 1021.9 -
26/05:00am 17.8 - - - - ENE 20 30 11 16 1021.8 1021.8 -
26/04:30am 18.0 - - - - ENE 20 33 11 18 1021.6 1021.6 -
26/04:00am 18.1 - - - - ENE 19 32 10 17 1021.6 1021.6 -
26/03:30am 18.3 - - - - E 17 32 9 17 1021.6 1021.6 -
26/03:00am 18.3 - - - - E 17 30 9 16 1021.6 1021.6 -
26/02:30am 18.4 - - - - E 19 32 10 17 1021.8 1021.8 -
26/02:00am 18.6 - - - - E 15 30 8 16 1021.9 1021.9 -
26/01:30am 18.9 - - - - E 15 28 8 15 1022.1 1022.1 -
26/01:00am 19.4 - - - - E 17 32 9 17 1022.2 1022.2 -
26/12:30am 19.9 - - - - E 17 37 9 20 1022.3 1022.3 -
26/12:00am 20.7 - - - - E 11 22 6 12 1022.3 1022.3 -
 
Date/Time
WST
Temp
°C
App
Temp
°C
Dew
Point
Rel
Hum
%
Delta-T
°C
Wind Press
QNH
hPa
Press
MSL
hPa
Rain
since 9 am
mm
Dir
 
Spd
km/h
Gust
km/h
Spd
kts
Gust
kts
25/11:30pm 21.4 - - - - E 11 24 6 13 1022.1 1022.1 -
25/11:00pm 22.0 - - - - E 9 28 5 15 1021.9 1021.9 -
25/10:30pm 22.7 - - - - E 7 17 4 9 1021.8 1021.8 -
25/10:00pm 22.8 - - - - E 4 11 2 6 1021.9 1021.9 -
25/09:30pm 22.9 - - - - ESE 4 15 2 8 1021.9 1021.9 -
25/09:00pm 23.4 - - - - ESE 4 11 2 6 1021.9 1021.9 -
25/08:30pm 23.9 - - - - SE 4 11 2 6 1021.6 1021.6 -
25/08:00pm 24.4 - - - - ESE 4 11 2 6 1021.4 1021.4 -
25/07:30pm 24.9 - - - - SE 2 7 1 4 1021.1 1021.1 -
25/07:00pm 25.7 - - - - E 4 9 2 5 1020.9 1020.9 -

Other Formats:

Comma delimited format used in spreadsheet applications
http://www.bom.gov.au/fwo/IDW60801/IDW60801.95605.axf

JavaScript Object Notation format (JSON) in row-major order
http://www.bom.gov.au/fwo/IDW60801/IDW60801.95605.json